sim
Sign-in with your pilot id or email,
or register
Callsign
Passwort

Schedule Details

Flight Number: RYR4484 (1)
Departure: Nuremberg Airport (EDDN) at 06:00
Arrival: Thessaloniki International Airport (LGTS) at 08:20
Route: Ryanair Passenger Schedule. Enter filed route here before submitting Pirep.

Weather Information
Getting current METAR information for EDDN 211850Z VRB01KT CAVOK 15/11 Q1028 NOSIG
Getting current METAR information for LGTS 211850Z 11004KT CAVOK 27/13 Q1017 NOSIG

Schedule Frequency

Route Map